createdAt,value
2018-10-19T00:01:41.929Z,3.53
2018-10-19T00:04:10.237Z,3.43
2018-10-19T00:06:38.548Z,3.53
2018-10-19T00:09:07.491Z,3.67
2018-10-19T00:11:35.184Z,3.47
2018-10-19T00:14:04.071Z,3.63
2018-10-19T00:16:32.372Z,2.80
2018-10-19T00:19:00.103Z,3.70
2018-10-19T00:21:28.411Z,3.53
2018-10-19T00:23:56.725Z,3.23
2018-10-19T00:26:25.179Z,3.23
2018-10-19T00:28:53.947Z,3.50
2018-10-19T00:31:22.249Z,3.07
2018-10-19T00:33:49.982Z,3.47
2018-10-19T00:36:18.871Z,3.60
2018-10-19T00:38:47.188Z,3.53
2018-10-19T00:41:14.996Z,3.50
2018-10-19T00:43:43.812Z,3.53
2018-10-19T00:46:12.112Z,3.20
2018-10-19T00:48:40.422Z,3.23
2018-10-19T00:51:08.600Z,3.20
2018-10-19T00:53:37.333Z,3.00
2018-10-19T00:56:05.707Z,2.93
2018-10-19T00:58:33.441Z,2.90
2018-10-19T01:01:03.298Z,2.80
2018-10-19T01:03:30.346Z,2.90
2018-10-19T01:05:58.657Z,2.63
2018-10-19T01:08:26.968Z,2.80
2018-10-19T01:10:55.900Z,2.60
2018-10-19T01:13:24.144Z,2.80
2018-10-19T01:15:51.942Z,2.77
2018-10-19T01:18:20.838Z,2.63
2018-10-19T01:20:49.160Z,2.50
2018-10-19T01:23:16.971Z,2.47
2018-10-19T01:25:45.192Z,2.83
2018-10-19T01:28:13.509Z,2.73
2018-10-19T01:30:41.823Z,2.33
2018-10-19T01:33:10.214Z,2.60
2018-10-19T01:35:39.012Z,2.83
2018-10-19T01:38:06.746Z,2.87
2018-10-19T01:40:35.053Z,4.20
2018-10-19T01:43:03.360Z,2.93
2018-10-19T01:45:32.247Z,3.20
2018-10-19T01:48:00.559Z,3.70
2018-10-19T01:50:28.289Z,4.37
2018-10-19T01:52:56.616Z,3.37
2018-10-19T01:55:25.490Z,3.10
2018-10-19T01:57:53.800Z,2.80
2018-10-19T02:00:22.110Z,2.93
2018-10-19T02:02:50.697Z,3.23
2018-10-19T02:05:18.430Z,2.37
2018-10-19T02:07:47.665Z,3.30
2018-10-19T02:10:15.391Z,3.30
2018-10-19T02:12:43.702Z,4.13
2018-10-19T02:15:12.638Z,5.60
2018-10-19T02:17:40.354Z,8.23
2018-10-19T02:20:09.241Z,7.93
2018-10-19T02:22:36.974Z,8.30
2018-10-19T02:25:05.306Z,6.90
2018-10-19T02:27:33.593Z,5.40
2018-10-19T02:30:01.944Z,5.27
2018-10-19T02:32:30.808Z,5.70
2018-10-19T02:34:58.560Z,4.63
2018-10-19T02:37:27.423Z,4.47
2018-10-19T02:39:55.737Z,4.43
2018-10-19T02:42:23.476Z,4.17
2018-10-19T02:44:51.810Z,4.23
2018-10-19T02:47:20.098Z,3.67
2018-10-19T02:49:48.408Z,4.67
2018-10-19T02:52:17.293Z,4.80
2018-10-19T02:54:45.598Z,4.47
2018-10-19T02:57:13.375Z,3.83
2018-10-19T02:59:41.775Z,4.50
2018-10-19T03:02:10.536Z,4.13
2018-10-19T03:04:38.848Z,4.00
2018-10-19T03:07:06.591Z,3.87
2018-10-19T03:09:34.898Z,3.43
2018-10-19T03:12:03.785Z,3.80
2018-10-19T03:14:31.514Z,3.60
2018-10-19T03:16:59.881Z,3.47
2018-10-19T03:19:28.168Z,3.27
2018-10-19T03:21:56.613Z,3.40
2018-10-19T03:24:25.377Z,5.67
2018-10-19T03:26:53.142Z,23.43
2018-10-19T03:29:21.536Z,4.73
2018-10-19T03:31:50.341Z,3.73
2018-10-19T03:34:18.645Z,5.80
2018-10-19T03:36:46.377Z,4.80
2018-10-19T03:39:14.747Z,4.63
2018-10-19T03:41:43.593Z,3.97
2018-10-19T03:44:11.505Z,3.67
2018-10-19T03:46:39.625Z,3.83
2018-10-19T03:49:08.582Z,4.10
2018-10-19T03:51:36.247Z,4.00
2018-10-19T03:54:05.131Z,3.60
2018-10-19T03:56:33.448Z,3.70
2018-10-19T03:59:01.242Z,3.17
2018-10-19T04:01:30.072Z,3.87
2018-10-19T04:03:57.847Z,3.80
2018-10-19T04:06:26.113Z,4.30
2018-10-19T04:08:54.448Z,3.80
2018-10-19T04:11:22.753Z,4.23
2018-10-19T04:13:51.064Z,4.30
2018-10-19T04:16:19.951Z,5.50
2018-10-19T04:18:47.716Z,8.67
2018-10-19T04:21:16.670Z,8.33
2018-10-19T04:23:44.936Z,9.00
2018-10-19T04:26:13.251Z,9.93
2018-10-19T04:28:41.586Z,12.37
2018-10-19T04:31:09.902Z,12.70
2018-10-19T04:33:38.230Z,13.13
2018-10-19T04:36:05.979Z,11.23
2018-10-19T04:38:34.300Z,10.10
2018-10-19T04:41:02.644Z,8.47
2018-10-19T04:43:31.209Z,27.20
2018-10-19T04:45:59.872Z,14.60
2018-10-19T04:48:28.235Z,28.00
2018-10-19T04:50:55.992Z,7.67
2018-10-19T04:53:24.873Z,7.07
2018-10-19T04:55:52.650Z,7.10
2018-10-19T04:58:21.502Z,7.10
2018-10-19T05:00:49.818Z,8.67
2018-10-19T05:03:18.190Z,7.60
2018-10-19T05:05:46.499Z,7.23
2018-10-19T05:08:14.216Z,7.80
2018-10-19T05:10:42.782Z,8.17
2018-10-19T05:13:10.890Z,12.17
2018-10-19T05:15:39.753Z,12.40
2018-10-19T05:18:07.793Z,14.37
2018-10-19T05:20:36.757Z,11.07
2018-10-19T05:23:04.762Z,27.70
2018-10-19T05:25:33.416Z,12.37
2018-10-19T05:28:01.161Z,12.93
2018-10-19T05:30:29.500Z,12.50
2018-10-19T05:32:58.457Z,11.90
2018-10-19T05:35:26.729Z,13.33
2018-10-19T05:37:54.484Z,10.87
2018-10-19T05:40:22.791Z,24.63
2018-10-19T05:42:51.715Z,18.00
2018-10-19T05:45:19.450Z,15.17
2018-10-19T05:47:47.767Z,23.13
2018-10-19T05:50:16.754Z,22.07
2018-10-19T05:52:44.997Z,20.00
2018-10-19T05:55:13.316Z,22.40
2018-10-19T05:57:41.626Z,22.90
2018-10-19T06:00:09.975Z,22.57
2018-10-19T06:02:39.125Z,24.10
2018-10-19T06:05:07.395Z,22.53
2018-10-19T06:07:35.653Z,18.50
2018-10-19T06:10:03.984Z,16.37
2018-10-19T06:12:32.300Z,15.50
2018-10-19T06:15:00.649Z,15.27
2018-10-19T06:17:28.391Z,13.53
2018-10-19T06:19:57.167Z,12.20
2018-10-19T06:22:26.700Z,11.17
2018-10-19T06:24:54.303Z,12.17
2018-10-19T06:27:22.126Z,11.07
2018-10-19T06:29:51.311Z,10.27
2018-10-19T06:32:19.071Z,10.23
2018-10-19T06:34:48.297Z,8.47
2018-10-19T06:37:16.125Z,7.83
2018-10-19T06:39:44.356Z,7.60
2018-10-19T06:42:12.673Z,8.10
2018-10-19T06:44:40.990Z,8.83
2018-10-19T06:47:09.404Z,8.30
2018-10-19T06:49:38.219Z,8.10
2018-10-19T06:52:06.541Z,8.80
2018-10-19T06:54:34.849Z,8.23
2018-10-19T06:57:03.173Z,10.43
2018-10-19T06:59:31.545Z,19.03
2018-10-19T07:01:59.275Z,12.10
2018-10-19T07:04:27.562Z,8.97
2018-10-19T07:06:56.482Z,10.73
2018-10-19T07:09:24.797Z,8.90
2018-10-19T07:11:52.883Z,10.50
2018-10-19T07:14:21.796Z,9.17
2018-10-19T07:16:50.113Z,8.47
2018-10-19T07:19:17.842Z,8.23
2018-10-19T07:21:47.005Z,7.20
2018-10-19T07:24:14.598Z,7.43
2018-10-19T07:26:43.503Z,7.20
2018-10-19T07:29:11.266Z,6.23
2018-10-19T07:31:40.625Z,5.60
2018-10-19T07:34:08.378Z,5.47
2018-10-19T07:36:37.281Z,6.80
2018-10-19T07:39:05.037Z,6.67
2018-10-19T07:41:33.936Z,8.37
2018-10-19T07:44:01.723Z,9.07
2018-10-19T07:46:30.579Z,12.73
2018-10-19T07:48:58.329Z,9.67
2018-10-19T07:51:27.222Z,5.80
2018-10-19T07:53:54.980Z,5.63
2018-10-19T07:56:23.274Z,4.77
2018-10-19T07:58:51.585Z,5.33
2018-10-19T08:01:20.622Z,5.23
2018-10-19T08:03:48.789Z,4.70
2018-10-19T08:06:17.098Z,4.17
2018-10-19T08:08:45.612Z,4.27
2018-10-19T08:11:13.398Z,10.33
2018-10-19T08:13:41.685Z,10.87
2018-10-19T08:16:10.577Z,4.50
2018-10-19T08:18:38.894Z,4.63
2018-10-19T08:21:07.214Z,4.03
2018-10-19T08:23:35.111Z,4.80
2018-10-19T08:26:04.389Z,4.70
2018-10-19T08:28:32.667Z,5.07
2018-10-19T08:31:01.568Z,5.60
2018-10-19T08:33:29.300Z,4.97
2018-10-19T08:35:58.178Z,4.83
2018-10-19T08:38:26.614Z,5.00
2018-10-19T08:40:54.938Z,5.00
2018-10-19T08:43:23.234Z,3.50
2018-10-19T08:45:51.556Z,3.03
2018-10-19T08:48:19.285Z,2.30
2018-10-19T08:50:48.500Z,1.93
2018-10-19T08:53:16.937Z,1.93
2018-10-19T08:55:45.122Z,2.70
2018-10-19T08:58:13.835Z,1.80
2018-10-19T09:00:41.476Z,1.90
2018-10-19T09:03:09.843Z,2.07
2018-10-19T09:05:38.681Z,1.57
2018-10-19T09:08:07.633Z,1.53
2018-10-19T09:10:35.948Z,1.80
2018-10-19T09:13:04.538Z,1.23
2018-10-19T09:15:32.272Z,1.87
2018-10-19T09:18:00.583Z,2.60
2018-10-19T09:20:29.471Z,1.73
2018-10-19T09:22:57.250Z,1.60
2018-10-19T09:25:25.516Z,1.80
2018-10-19T09:27:54.712Z,1.80
2018-10-19T09:30:23.033Z,1.93
2018-10-19T09:32:51.336Z,1.53
2018-10-19T09:35:19.807Z,1.80
2018-10-19T09:37:47.394Z,1.90
2018-10-19T09:40:15.792Z,2.00
2018-10-19T09:42:44.049Z,2.13
2018-10-19T09:45:12.404Z,2.17
2018-10-19T09:47:40.729Z,2.60
2018-10-19T09:50:09.571Z,1.60
2018-10-19T09:52:37.936Z,1.63
2018-10-19T09:55:06.267Z,2.10
2018-10-19T09:57:33.993Z,1.80
2018-10-19T10:00:02.314Z,2.10
2018-10-19T10:02:30.710Z,1.70
2018-10-19T10:05:00.443Z,5.67
2018-10-19T10:07:28.162Z,2.10
2018-10-19T10:09:57.746Z,2.10
2018-10-19T10:12:26.061Z,1.63
2018-10-19T10:14:53.857Z,1.40
2018-10-19T10:17:22.686Z,1.40
2018-10-19T10:19:51.058Z,1.20
2018-10-19T10:22:18.791Z,1.60
2018-10-19T10:24:47.712Z,1.20
2018-10-19T10:27:15.413Z,1.30
2018-10-19T10:29:44.617Z,1.67
2018-10-19T10:32:12.964Z,1.50
2018-10-19T10:34:40.688Z,1.27
2018-10-19T10:37:09.662Z,1.27
2018-10-19T10:39:37.922Z,3.10
2018-10-19T10:42:06.235Z,3.20
2018-10-19T10:44:34.553Z,1.93
2018-10-19T10:47:02.953Z,1.10
2018-10-19T10:49:30.608Z,1.60
2018-10-19T10:51:59.550Z,2.00
2018-10-19T10:54:27.244Z,1.10
2018-10-19T10:56:56.141Z,1.30
2018-10-19T10:59:23.868Z,1.40
2018-10-19T11:01:52.186Z,1.30
2018-10-19T11:04:20.502Z,1.20
2018-10-19T11:06:49.413Z,1.30
2018-10-19T11:09:17.148Z,1.50
2018-10-19T11:11:45.534Z,1.10
2018-10-19T11:14:13.848Z,1.33
2018-10-19T11:16:42.741Z,1.10
2018-10-19T11:19:11.140Z,1.23
2018-10-19T11:21:39.036Z,1.30
2018-10-19T11:24:07.192Z,1.10
2018-10-19T11:26:36.024Z,1.27
2018-10-19T11:29:04.672Z,1.20
2018-10-19T11:31:33.320Z,1.20
2018-10-19T11:34:01.715Z,1.17
2018-10-19T11:36:30.293Z,1.30
2018-10-19T11:38:58.616Z,1.30
2018-10-19T11:41:26.345Z,1.10
2018-10-19T11:43:55.462Z,1.53
2018-10-19T11:46:23.781Z,1.00
2018-10-19T11:48:52.885Z,1.30
2018-10-19T11:51:20.541Z,1.10
2018-10-19T11:53:48.876Z,1.50
2018-10-19T11:56:17.187Z,1.43
2018-10-19T11:58:45.511Z,1.07
2018-10-19T12:01:13.904Z,1.40
2018-10-19T12:03:42.767Z,1.30
2018-10-19T12:06:10.899Z,1.30
2018-10-19T12:08:39.580Z,4.77
2018-10-19T12:11:08.045Z,2.30
2018-10-19T12:13:35.775Z,1.50
2018-10-19T12:16:04.259Z,1.20
2018-10-19T12:18:32.983Z,1.00
2018-10-19T12:21:00.770Z,1.40
2018-10-19T12:23:29.036Z,1.40
2018-10-19T12:25:57.949Z,1.40
2018-10-19T12:28:26.604Z,1.30
2018-10-19T12:30:54.943Z,1.60
2018-10-19T12:33:23.704Z,1.90
2018-10-19T12:35:52.017Z,1.43
2018-10-19T12:38:20.656Z,1.43
2018-10-19T12:40:48.391Z,1.80
2018-10-19T12:43:17.312Z,1.60
2018-10-19T12:45:57.876Z,1.40
2018-10-19T12:48:26.223Z,1.40
2018-10-19T12:50:54.589Z,1.20
2018-10-19T12:53:22.865Z,1.50
2018-10-19T12:55:51.596Z,1.30
2018-10-19T12:58:19.907Z,1.47
2018-10-19T13:00:48.685Z,1.50
2018-10-19T13:03:17.075Z,1.70
2018-10-19T13:05:45.328Z,1.90
2018-10-19T13:08:13.076Z,1.50
2018-10-19T13:10:41.391Z,1.63
2018-10-19T13:13:09.724Z,1.50
2018-10-19T13:15:38.031Z,1.57
2018-10-19T13:18:06.973Z,4.90
2018-10-19T13:20:34.677Z,3.83
2018-10-19T13:23:04.553Z,2.07
2018-10-19T13:25:32.197Z,1.50
2018-10-19T13:27:59.933Z,1.87
2018-10-19T13:30:28.250Z,1.90
2018-10-19T13:32:56.623Z,1.57
2018-10-19T13:35:25.488Z,1.67
2018-10-19T13:37:53.222Z,1.50
2018-10-19T13:40:21.540Z,1.67
2018-10-19T13:42:50.436Z,1.77
2018-10-19T13:45:18.551Z,1.50
2018-10-19T13:47:47.424Z,2.23
2018-10-19T13:50:15.744Z,2.00
2018-10-19T13:52:44.337Z,1.80
2018-10-19T13:55:11.845Z,2.00
2018-10-19T13:57:40.760Z,1.80
2018-10-19T14:00:09.082Z,1.70
2018-10-19T14:02:37.792Z,1.50
2018-10-19T14:05:06.085Z,1.63
2018-10-19T14:07:34.364Z,1.30
2018-10-19T14:10:03.289Z,1.43
2018-10-19T14:12:31.321Z,1.80
2018-10-19T14:15:00.282Z,1.90
2018-10-19T14:17:28.545Z,1.70
2018-10-19T14:19:56.862Z,1.77
2018-10-19T14:22:24.629Z,1.93
2018-10-19T14:24:52.983Z,2.60
2018-10-19T14:27:21.288Z,2.80
2018-10-19T14:29:49.628Z,2.57
2018-10-19T14:32:19.206Z,3.10
2018-10-19T14:34:47.308Z,2.50
2018-10-19T14:37:15.294Z,1.80
2018-10-19T14:39:44.185Z,2.57
2018-10-19T14:42:12.913Z,6.27
2018-10-19T14:44:41.209Z,2.50
2018-10-19T14:47:09.905Z,1.90
2018-10-19T14:49:37.589Z,1.67
2018-10-19T14:52:06.499Z,1.43
2018-10-19T14:54:34.837Z,3.30
2018-10-19T14:57:03.482Z,2.90
2018-10-19T14:59:31.209Z,2.47
2018-10-19T15:02:00.118Z,2.57
2018-10-19T15:04:28.441Z,2.70
2018-10-19T15:06:56.222Z,4.17
2018-10-19T15:09:25.616Z,6.77
2018-10-19T15:11:54.096Z,6.97
2018-10-19T15:14:22.148Z,8.40
2018-10-19T15:16:49.890Z,10.43
2018-10-19T15:19:19.106Z,13.77
2018-10-19T15:21:47.800Z,15.73
2018-10-19T15:24:16.148Z,26.33
2018-10-19T15:26:44.764Z,35.83
2018-10-19T15:29:13.107Z,27.43
2018-10-19T15:31:41.730Z,11.00
2018-10-19T15:34:09.480Z,10.27
2018-10-19T15:36:38.488Z,11.10
2018-10-19T15:39:06.933Z,11.50
2018-10-19T15:41:35.288Z,15.00
2018-10-19T15:44:03.242Z,17.80
2018-10-19T15:46:32.241Z,17.63
2018-10-19T15:49:00.178Z,18.27
2018-10-19T15:51:29.192Z,22.00
2018-10-19T15:53:57.558Z,22.57
2018-10-19T15:56:25.852Z,24.63
2018-10-19T15:58:56.087Z,23.63
2018-10-19T16:01:23.902Z,41.27
2018-10-19T16:03:52.266Z,62.43
2018-10-19T16:06:20.665Z,64.43
2018-10-19T16:08:49.572Z,24.20
2018-10-19T16:11:18.178Z,15.63
2018-10-19T16:13:45.919Z,14.10
2018-10-19T16:16:14.836Z,14.37
2018-10-19T16:18:43.163Z,14.53
2018-10-19T16:21:11.554Z,16.03
2018-10-19T16:23:39.896Z,24.97
2018-10-19T16:26:08.220Z,34.63
2018-10-19T16:28:36.706Z,15.57
2018-10-19T16:31:05.323Z,12.10
2018-10-19T16:33:33.720Z,28.77
2018-10-19T16:36:02.455Z,12.73
2018-10-19T16:38:30.208Z,12.97
2018-10-19T16:40:58.620Z,12.70
2018-10-19T16:43:27.683Z,14.87
2018-10-19T16:45:56.467Z,15.83
2018-10-19T16:48:24.310Z,33.07
2018-10-19T16:50:53.276Z,25.77
2018-10-19T16:53:21.772Z,27.33
2018-10-19T16:55:50.149Z,42.07
2018-10-19T16:58:17.911Z,82.17
2018-10-19T17:00:46.241Z,25.77
2018-10-19T17:03:15.243Z,42.90
2018-10-19T17:05:43.529Z,20.47
2018-10-19T17:08:12.064Z,20.70
2018-10-19T17:10:40.490Z,17.80
2018-10-19T17:13:08.858Z,17.53
2018-10-19T17:15:36.604Z,23.07
2018-10-19T17:18:05.587Z,47.07
2018-10-19T17:20:33.962Z,86.53
2018-10-19T17:23:01.714Z,89.17
2018-10-19T17:25:30.082Z,63.80
2018-10-19T17:27:58.962Z,44.43
2018-10-19T17:30:27.384Z,54.60
2018-10-19T17:32:55.755Z,69.03
2018-10-19T17:35:24.347Z,66.37
2018-10-19T17:37:52.103Z,48.87
2018-10-19T17:40:21.017Z,37.57
2018-10-19T17:42:49.414Z,49.43
2018-10-19T17:45:17.717Z,90.00
2018-10-19T17:47:45.542Z,75.60
2018-10-19T17:50:14.397Z,60.20
2018-10-19T17:52:42.738Z,48.33
2018-10-19T17:55:10.488Z,53.43
2018-10-19T17:57:40.068Z,40.57
2018-10-19T18:00:08.442Z,40.70
2018-10-19T18:02:36.141Z,37.33
2018-10-19T18:05:05.061Z,45.87
2018-10-19T18:07:33.402Z,32.67
2018-10-19T18:10:01.192Z,25.60
2018-10-19T18:12:29.476Z,25.33
2018-10-19T18:14:58.384Z,39.10
2018-10-19T18:17:26.403Z,74.87
2018-10-19T18:19:55.302Z,98.87
2018-10-19T18:22:24.109Z,39.63
2018-10-19T18:24:52.114Z,33.13
2018-10-19T18:27:20.467Z,32.53
2018-10-19T18:29:48.208Z,31.07
2018-10-19T18:32:17.199Z,36.03
2018-10-19T18:34:45.454Z,44.87
2018-10-19T18:37:13.206Z,71.30
2018-10-19T18:39:42.218Z,77.07
2018-10-19T18:42:10.576Z,133.60
2018-10-19T18:44:38.741Z,79.23
2018-10-19T18:47:07.720Z,68.27
2018-10-19T18:49:36.001Z,37.10
2018-10-19T18:52:04.433Z,22.00
2018-10-19T18:54:33.016Z,20.77
2018-10-19T18:57:01.318Z,21.03
2018-10-19T18:59:29.642Z,18.37
2018-10-19T19:01:58.189Z,19.80
2018-10-19T19:04:25.917Z,55.27
2018-10-19T19:06:54.874Z,177.50
2018-10-19T19:09:23.304Z,116.77
2018-10-19T19:11:51.793Z,67.47
2018-10-19T19:14:20.135Z,62.10
2018-10-19T19:16:48.505Z,270.83
2018-10-19T19:19:16.397Z,152.00
2018-10-19T19:21:45.163Z,63.43
2018-10-19T19:24:12.928Z,81.30
2018-10-19T19:26:41.874Z,87.37
2018-10-19T19:29:09.665Z,71.43
2018-10-19T19:31:37.954Z,42.07
2018-10-19T19:34:07.818Z,31.47
2018-10-19T19:36:36.158Z,28.43
2018-10-19T19:39:04.507Z,30.47
2018-10-19T19:41:32.856Z,28.53
2018-10-19T19:44:01.251Z,33.00
2018-10-19T19:46:29.649Z,112.47
2018-10-19T19:48:57.480Z,168.33
2018-10-19T19:51:26.456Z,134.03
2018-10-19T19:53:54.827Z,41.17
2018-10-19T19:56:23.140Z,31.43
2018-10-19T19:58:51.460Z,25.60
2018-10-19T20:01:19.246Z,24.50
2018-10-19T20:03:47.972Z,21.73
2018-10-19T20:06:16.371Z,25.53
2018-10-19T20:08:45.269Z,33.87
2018-10-19T20:11:13.711Z,21.93
2018-10-19T20:13:41.959Z,25.70
2018-10-19T20:16:10.454Z,28.37
2018-10-19T20:18:38.813Z,23.97
2018-10-19T20:21:08.040Z,28.77
2018-10-19T20:23:36.970Z,38.90
2018-10-19T20:26:04.858Z,37.13
2018-10-19T20:28:33.829Z,30.00
2018-10-19T20:31:02.138Z,50.13
2018-10-19T20:33:30.499Z,81.77
2018-10-19T20:35:58.832Z,48.13
2018-10-19T20:38:27.251Z,44.73
2018-10-19T20:40:55.045Z,42.97
2018-10-19T20:43:23.905Z,34.87
2018-10-19T20:45:52.231Z,35.20
2018-10-19T20:48:20.631Z,29.47
2018-10-19T20:50:48.954Z,37.00
2018-10-19T20:53:17.535Z,28.43
2018-10-19T20:55:45.403Z,33.03
2018-10-19T20:58:14.305Z,26.97
2018-10-19T21:00:42.690Z,27.90
2018-10-19T21:03:11.032Z,25.77
2018-10-19T21:05:39.431Z,25.67
2018-10-19T21:08:07.783Z,24.90
2018-10-19T21:10:36.093Z,23.37
2018-10-19T21:13:03.900Z,21.50
2018-10-19T21:15:32.217Z,22.93
2018-10-19T21:18:00.532Z,20.77
2018-10-19T21:20:29.468Z,21.50
2018-10-19T21:22:57.894Z,20.47
2018-10-19T21:25:26.279Z,24.47
2018-10-19T21:27:54.074Z,21.47
2018-10-19T21:30:23.132Z,24.13
2018-10-19T21:32:51.598Z,25.67
2018-10-19T21:35:19.396Z,25.30
2018-10-19T21:37:48.372Z,25.23
2018-10-19T21:40:16.697Z,26.23
2018-10-19T21:42:45.068Z,25.63
2018-10-19T21:45:12.811Z,25.47
2018-10-19T21:47:41.238Z,23.80
2018-10-19T21:50:09.599Z,25.23
2018-10-19T21:52:38.499Z,26.37
2018-10-19T21:55:06.816Z,25.97
2018-10-19T21:57:34.541Z,25.50
2018-10-19T22:00:02.856Z,26.47
2018-10-19T22:02:31.757Z,27.20
2018-10-19T22:05:00.141Z,27.37
2018-10-19T22:07:27.847Z,30.87
2018-10-19T22:15:24.882Z,30.27
2018-10-19T22:17:53.496Z,29.00
2018-10-19T22:20:21.817Z,29.97
2018-10-19T22:22:49.614Z,30.07
2018-10-19T22:25:17.963Z,28.03
2018-10-19T22:27:46.782Z,25.33
2018-10-19T22:30:15.113Z,24.97
2018-10-19T22:32:43.422Z,26.57
2018-10-19T22:35:11.790Z,24.43
2018-10-19T22:37:39.483Z,25.23
2018-10-19T22:40:07.802Z,25.73
2018-10-19T22:42:36.706Z,24.90
2018-10-19T22:45:05.033Z,26.40
2018-10-19T22:47:33.345Z,26.80
2018-10-19T22:50:01.378Z,24.90
2018-10-19T22:52:29.404Z,23.97
2018-10-19T22:54:57.810Z,23.90
2018-10-19T22:57:26.044Z,23.33
2018-10-19T22:59:54.370Z,23.93
2018-10-19T23:02:22.697Z,26.93
2018-10-19T23:04:51.006Z,23.70
2018-10-19T23:07:19.910Z,21.90
2018-10-19T23:09:47.783Z,21.70
2018-10-19T23:12:16.557Z,21.40
2018-10-19T23:14:44.873Z,22.33
2018-10-19T23:17:13.251Z,24.27
2018-10-19T23:19:40.942Z,25.37
2018-10-19T23:22:09.848Z,23.73
2018-10-19T23:24:38.169Z,23.53
2018-10-19T23:27:06.481Z,22.80
2018-10-19T23:29:34.218Z,22.43
2018-10-19T23:32:03.120Z,21.87
2018-10-19T23:34:31.445Z,21.33
2018-10-19T23:36:59.184Z,19.90
2018-10-19T23:39:28.083Z,18.87
2018-10-19T23:41:55.821Z,19.87
2018-10-19T23:44:24.717Z,18.90
2018-10-19T23:46:52.460Z,18.70
2018-10-19T23:49:21.358Z,18.00
2018-10-19T23:51:49.712Z,18.07
2018-10-19T23:54:17.458Z,18.53
2018-10-19T23:56:46.350Z,18.97
2018-10-19T23:59:14.163Z,18.50
